createdAt,value
2017-11-04T00:00:47.370Z,30.50
2017-11-04T00:03:15.820Z,31.33
2017-11-04T00:05:45.284Z,39.25
2017-11-04T00:08:12.004Z,37.70
2017-11-04T00:10:38.927Z,32.58
2017-11-04T00:13:06.504Z,32.90
2017-11-04T00:15:35.138Z,42.15
2017-11-04T00:18:01.829Z,27.60
2017-11-04T00:20:29.106Z,28.00
2017-11-04T00:22:55.794Z,42.35
2017-11-04T00:25:22.508Z,36.03
2017-11-04T00:27:49.191Z,34.53
2017-11-04T00:30:15.906Z,34.38
2017-11-04T00:32:42.587Z,32.15
2017-11-04T00:35:09.287Z,35.88
2017-11-04T00:37:35.975Z,37.95
2017-11-04T00:40:02.685Z,33.67
2017-11-04T00:42:29.432Z,41.28
2017-11-04T00:44:56.149Z,33.38
2017-11-04T00:47:23.097Z,28.38
2017-11-04T00:49:49.799Z,40.50
2017-11-04T00:52:16.484Z,48.20
2017-11-04T00:54:43.781Z,32.75
2017-11-04T00:57:10.482Z,38.58
2017-11-04T00:59:38.555Z,32.42
2017-11-04T01:02:05.239Z,33.72
2017-11-04T01:04:33.300Z,35.50
2017-11-04T01:07:00.943Z,40.55
2017-11-04T01:09:30.279Z,34.53
2017-11-04T01:11:58.903Z,42.35
2017-11-04T01:14:25.933Z,34.97
2017-11-04T01:16:53.531Z,45.28
2017-11-04T01:19:22.037Z,34.58
2017-11-04T01:21:49.785Z,30.25
2017-11-04T01:24:16.925Z,39.83
2017-11-04T01:26:43.866Z,34.03
2017-11-04T01:29:11.196Z,34.13
2017-11-04T01:31:38.607Z,34.20
2017-11-04T01:34:06.668Z,30.05
2017-11-04T01:36:34.295Z,40.75
2017-11-04T01:39:02.272Z,42.70
2017-11-04T01:41:29.407Z,37.05
2017-11-04T01:43:57.256Z,40.75
2017-11-04T01:46:24.036Z,35.28
2017-11-04T01:48:50.772Z,36.58
2017-11-04T01:51:17.711Z,34.17
2017-11-04T01:53:45.732Z,45.33
2017-11-04T01:56:13.910Z,43.13
2017-11-04T01:58:40.850Z,41.88
2017-11-04T02:01:07.567Z,38.38
2017-11-04T02:03:34.444Z,36.72
2017-11-04T02:06:02.136Z,36.85
2017-11-04T02:08:29.562Z,41.15
2017-11-04T02:10:56.635Z,48.20
2017-11-04T02:13:23.794Z,37.63
2017-11-04T02:15:52.348Z,47.97
2017-11-04T02:18:19.390Z,41.95
2017-11-04T02:20:46.458Z,36.13
2017-11-04T02:23:13.156Z,37.05
2017-11-04T02:25:40.684Z,36.38
2017-11-04T02:28:07.422Z,44.55
2017-11-04T02:30:35.097Z,45.78
2017-11-04T02:33:01.796Z,62.38
2017-11-04T02:35:28.484Z,35.67
2017-11-04T02:37:56.331Z,46.47
2017-11-04T02:40:24.112Z,48.58
2017-11-04T02:42:50.800Z,36.08
2017-11-04T02:45:17.760Z,36.67
2017-11-04T02:47:44.905Z,45.47
2017-11-04T02:52:44.789Z,57.03
2017-11-04T02:55:12.179Z,49.78
2017-11-04T02:57:39.848Z,48.75
2017-11-04T03:00:08.059Z,63.33
2017-11-04T03:02:35.238Z,61.80
2017-11-04T03:05:03.653Z,46.15
2017-11-04T03:07:34.940Z,46.40
2017-11-04T03:10:04.504Z,50.60
2017-11-04T03:15:27.324Z,52.85
2017-11-04T03:17:54.412Z,56.95
2017-11-04T03:20:22.107Z,51.37
2017-11-04T03:22:49.188Z,46.00
2017-11-04T03:25:17.271Z,59.63
2017-11-04T03:27:44.804Z,54.08
2017-11-04T03:30:12.050Z,41.92
2017-11-04T03:32:39.150Z,54.17
2017-11-04T03:35:07.547Z,58.92
2017-11-04T03:37:37.504Z,74.53
2017-11-04T03:40:05.835Z,69.03
2017-11-04T03:42:34.571Z,77.20
2017-11-04T03:45:02.044Z,63.83
2017-11-04T03:47:29.353Z,50.10
2017-11-04T03:49:57.756Z,63.45
2017-11-04T03:52:25.081Z,53.15
2017-11-04T03:54:52.993Z,54.13
2017-11-04T03:57:21.038Z,56.50
2017-11-04T03:59:48.767Z,62.97
2017-11-04T04:02:16.745Z,52.15
2017-11-04T04:04:43.584Z,45.67
2017-11-04T04:07:10.375Z,44.55
2017-11-04T04:09:38.480Z,61.30
2017-11-04T04:12:06.943Z,54.90
2017-11-04T04:14:38.620Z,50.90
2017-11-04T04:17:05.471Z,65.40
2017-11-04T04:19:32.503Z,62.47
2017-11-04T04:22:00.907Z,61.45
2017-11-04T04:24:29.315Z,53.25
2017-11-04T04:26:56.923Z,53.47
2017-11-04T04:29:23.776Z,51.63
2017-11-04T04:31:50.548Z,57.15
2017-11-04T04:34:17.330Z,58.78
2017-11-04T04:36:44.792Z,46.70
2017-11-04T04:39:11.712Z,55.88
2017-11-04T04:41:38.968Z,69.20
2017-11-04T04:44:06.938Z,62.90
2017-11-04T04:46:34.040Z,48.83
2017-11-04T04:49:00.805Z,59.53
2017-11-04T04:51:27.607Z,53.55
2017-11-04T04:53:55.075Z,60.42
2017-11-04T04:56:22.511Z,46.37
2017-11-04T04:58:50.481Z,61.67
2017-11-04T05:01:17.231Z,49.88
2017-11-04T05:03:44.972Z,52.45
2017-11-04T05:06:12.014Z,50.97
2017-11-04T05:08:38.836Z,41.37
2017-11-04T05:11:05.623Z,49.60
2017-11-04T05:13:32.387Z,46.80
2017-11-04T05:16:00.065Z,41.35
2017-11-04T05:18:27.044Z,51.58
2017-11-04T05:20:54.340Z,45.08
2017-11-04T05:23:21.438Z,54.30
2017-11-04T05:25:48.194Z,42.83
2017-11-04T05:28:16.727Z,57.85
2017-11-04T05:30:44.434Z,47.17
2017-11-04T05:33:11.607Z,55.78
2017-11-04T05:35:39.011Z,56.45
2017-11-04T05:38:07.570Z,65.97
2017-11-04T05:40:36.103Z,59.03
2017-11-04T05:43:03.597Z,46.05
2017-11-04T05:45:31.385Z,45.90
2017-11-04T05:48:01.743Z,50.90
2017-11-04T05:50:28.547Z,48.95
2017-11-04T05:53:00.156Z,43.53
2017-11-04T05:55:26.941Z,42.22
2017-11-04T05:57:54.895Z,48.78
2017-11-04T06:02:53.928Z,44.78
2017-11-04T06:07:55.339Z,45.00
2017-11-04T06:10:24.304Z,48.55
2017-11-04T06:12:51.126Z,51.80
2017-11-04T06:15:19.953Z,59.20
2017-11-04T06:17:47.329Z,75.65
2017-11-04T06:20:15.414Z,50.58
2017-11-04T06:22:43.247Z,52.38
2017-11-04T06:25:10.435Z,41.97
2017-11-04T06:27:37.921Z,59.83
2017-11-04T06:30:05.680Z,58.30
2017-11-04T06:32:32.963Z,45.47
2017-11-04T06:37:32.085Z,49.60
2017-11-04T06:40:02.972Z,40.17
2017-11-04T06:42:29.787Z,55.67
2017-11-04T06:44:56.565Z,54.55
2017-11-04T06:47:24.391Z,55.88
2017-11-04T06:49:51.186Z,46.25
2017-11-04T06:52:17.914Z,55.88
2017-11-04T06:54:44.654Z,46.37
2017-11-04T06:57:11.408Z,44.83
2017-11-04T06:59:38.159Z,45.12
2017-11-04T07:02:04.941Z,47.35
2017-11-04T07:04:31.718Z,41.95
2017-11-04T07:06:58.443Z,41.10
2017-11-04T07:09:25.507Z,38.15
2017-11-04T07:11:52.672Z,33.47
2017-11-04T07:14:19.403Z,36.78
2017-11-04T07:16:46.885Z,30.88
2017-11-04T07:19:13.614Z,33.13
2017-11-04T07:21:40.338Z,29.20
2017-11-04T07:24:07.088Z,32.13
2017-11-04T07:26:33.815Z,34.55
2017-11-04T07:29:02.167Z,33.42
2017-11-04T07:31:28.931Z,33.90
2017-11-04T07:33:57.386Z,35.65
2017-11-04T07:36:24.111Z,34.38
2017-11-04T07:38:50.873Z,31.60
2017-11-04T07:41:18.454Z,35.20
2017-11-04T07:43:45.185Z,29.65
2017-11-04T07:46:11.923Z,34.97
2017-11-04T07:48:38.656Z,29.55
2017-11-04T07:51:05.424Z,37.00
2017-11-04T07:53:32.159Z,31.95
2017-11-04T07:55:59.317Z,31.15
2017-11-04T07:58:26.056Z,32.38
2017-11-04T08:03:23.796Z,32.63
2017-11-04T08:05:51.277Z,32.03
2017-11-04T08:08:18.023Z,31.12
2017-11-04T08:13:15.799Z,33.13
2017-11-04T08:15:42.552Z,43.08
2017-11-04T08:18:10.056Z,33.55
2017-11-04T08:20:36.788Z,31.20
2017-11-04T08:23:03.559Z,33.97
2017-11-04T08:25:30.344Z,33.50
2017-11-04T08:27:57.074Z,31.80
2017-11-04T08:30:23.831Z,26.02
2017-11-04T08:32:51.427Z,29.85
2017-11-04T08:35:18.843Z,24.65
2017-11-04T08:37:45.639Z,25.10
2017-11-04T08:40:12.352Z,23.30
2017-11-04T08:42:39.116Z,27.48
2017-11-04T08:45:05.917Z,23.77
2017-11-04T08:47:32.681Z,24.63
2017-11-04T08:49:59.424Z,26.75
2017-11-04T08:52:26.407Z,28.20
2017-11-04T08:54:53.138Z,23.73
2017-11-04T08:57:20.000Z,29.63
2017-11-04T08:59:47.035Z,33.45
2017-11-04T09:02:15.742Z,23.15
2017-11-04T09:04:42.876Z,27.77
2017-11-04T09:07:09.686Z,27.65
2017-11-04T09:09:36.432Z,28.17
2017-11-04T09:12:03.255Z,24.67
2017-11-04T09:14:29.995Z,23.30
2017-11-04T09:16:56.763Z,24.75
2017-11-04T09:19:23.619Z,21.83
2017-11-04T09:21:50.371Z,22.55
2017-11-04T09:24:17.131Z,22.70
2017-11-04T09:26:43.895Z,23.90
2017-11-04T09:29:10.689Z,26.37
2017-11-04T09:31:37.453Z,27.87
2017-11-04T09:34:04.414Z,23.62
2017-11-04T09:36:31.490Z,23.62
2017-11-04T09:38:58.207Z,23.08
2017-11-04T09:41:25.011Z,25.37
2017-11-04T09:43:51.791Z,23.30
2017-11-04T09:46:18.535Z,21.83
2017-11-04T09:48:45.584Z,22.42
2017-11-04T09:51:12.331Z,24.27
2017-11-04T09:53:39.164Z,22.27
2017-11-04T09:56:06.287Z,24.67
2017-11-04T09:58:33.023Z,20.52
2017-11-04T10:00:59.749Z,21.23
2017-11-04T10:03:26.459Z,22.70
2017-11-04T10:05:53.185Z,21.37
2017-11-04T10:08:19.912Z,21.45
2017-11-04T10:10:46.956Z,21.42
2017-11-04T10:13:13.696Z,19.83
2017-11-04T10:15:40.412Z,19.70
2017-11-04T10:18:07.130Z,21.35
2017-11-04T10:20:33.876Z,22.08
2017-11-04T10:23:00.665Z,18.52
2017-11-04T10:25:27.375Z,22.62
2017-11-04T10:27:54.108Z,20.30
2017-11-04T10:30:20.831Z,20.33
2017-11-04T10:32:47.539Z,24.58
2017-11-04T10:35:14.278Z,22.05
2017-11-04T10:37:41.012Z,26.30
2017-11-04T10:40:07.732Z,25.10
2017-11-04T10:42:40.462Z,21.73
2017-11-04T10:45:07.173Z,22.15
2017-11-04T10:47:34.215Z,21.12
2017-11-04T10:50:40.562Z,20.80
2017-11-04T10:53:07.283Z,21.67
2017-11-04T10:55:34.062Z,21.50
2017-11-04T10:58:00.802Z,21.17
2017-11-04T11:00:27.535Z,20.77
2017-11-04T11:02:54.317Z,21.87
2017-11-04T11:05:21.056Z,22.85
2017-11-04T11:07:47.795Z,22.85
2017-11-04T11:10:14.559Z,23.20
2017-11-04T11:12:41.324Z,21.52
2017-11-04T11:15:08.286Z,26.50
2017-11-04T11:17:35.128Z,22.92
2017-11-04T11:20:01.900Z,21.58
2017-11-04T11:22:28.658Z,20.80
2017-11-04T11:24:55.395Z,24.55
2017-11-04T11:27:22.167Z,21.37
2017-11-04T11:29:48.909Z,23.25
2017-11-04T11:32:15.659Z,23.35
2017-11-04T11:34:43.142Z,23.75
2017-11-04T11:37:09.897Z,20.92
2017-11-04T11:39:36.637Z,22.75
2017-11-04T11:42:03.704Z,21.60
2017-11-04T11:44:30.535Z,22.65
2017-11-04T11:46:57.595Z,20.92
2017-11-04T11:49:24.376Z,23.17
2017-11-04T11:51:51.491Z,22.33
2017-11-04T11:54:18.242Z,22.95
2017-11-04T11:56:45.027Z,21.98
2017-11-04T11:59:13.540Z,22.98
2017-11-04T12:01:40.263Z,21.70
2017-11-04T12:20:01.033Z,13.30
2017-11-04T12:25:11.132Z,23.52
2017-11-04T12:27:38.084Z,33.38
2017-11-04T12:32:45.853Z,20.25
2017-11-04T12:35:22.180Z,19.50
2017-11-04T13:16:08.941Z,26.48
2017-11-04T14:04:32.836Z,15.82
2017-11-04T14:50:20.017Z,27.05
2017-11-04T14:52:48.918Z,18.60
2017-11-04T14:55:25.099Z,21.12
2017-11-04T15:13:10.344Z,23.85
2017-11-04T15:28:17.441Z,13.35
2017-11-04T15:38:33.800Z,11.27
2017-11-04T15:54:04.343Z,12.25
2017-11-04T16:12:07.921Z,11.38
2017-11-04T16:17:15.152Z,11.43
2017-11-04T16:19:44.161Z,10.88
2017-11-04T16:24:46.343Z,10.60
2017-11-04T16:35:17.334Z,10.18
2017-11-04T16:38:06.431Z,11.50
2017-11-04T16:48:52.208Z,10.48
2017-11-04T16:53:51.231Z,9.68
2017-11-04T16:56:18.471Z,9.55
2017-11-04T17:04:05.411Z,10.45
2017-11-04T17:29:47.643Z,9.05
2017-11-04T17:32:15.419Z,9.45
2017-11-04T17:44:50.160Z,10.18
2017-11-04T17:49:50.948Z,10.10
2017-11-04T17:52:18.592Z,10.02
2017-11-04T18:08:03.497Z,10.10
2017-11-04T18:15:46.431Z,9.73
2017-11-04T18:18:15.079Z,10.40
2017-11-04T18:23:15.620Z,10.00
2017-11-04T18:28:17.221Z,11.45
2017-11-04T18:33:21.392Z,10.20
2017-11-04T18:38:24.596Z,9.40
2017-11-04T18:48:31.227Z,10.98
2017-11-04T18:56:12.767Z,8.77
2017-11-04T18:58:39.992Z,8.15
2017-11-04T19:19:11.012Z,9.48
2017-11-04T19:21:38.179Z,10.10
2017-11-04T19:24:07.894Z,9.50
2017-11-04T19:26:35.443Z,9.75
2017-11-04T19:49:34.247Z,10.25
2017-11-04T19:57:21.155Z,10.23
2017-11-04T19:59:49.547Z,9.35
2017-11-04T20:02:20.591Z,10.98
2017-11-04T20:12:30.280Z,10.88
2017-11-04T20:22:33.240Z,11.55
2017-11-04T20:30:11.072Z,10.68
2017-11-04T20:40:25.696Z,12.13
2017-11-04T21:05:59.809Z,9.32
2017-11-04T21:16:07.309Z,10.32
2017-11-04T21:49:44.786Z,9.25
2017-11-04T22:13:28.513Z,9.10
2017-11-04T22:15:57.111Z,10.45
2017-11-04T22:20:59.962Z,8.15
2017-11-04T22:28:38.800Z,10.43
2017-11-04T22:31:09.426Z,8.63
2017-11-04T22:33:38.004Z,9.43
2017-11-04T22:36:06.366Z,9.00
